Charlestown, Maryland
Current Conditions -  °F | °C
As of 3:55 PM on Thursday 18 Dec 2014 (Local Time) from KAPG Reporting Station
Overcast Overcast  
Wind Chill: 30°   Ceiling: 4000
Heat Index: 39°   Visibility: 7mi
Dew Point: 23°   Wind: 17mph
Humidity: 52%   Direction: 310°NW
Pressure: 30.07"   Gusts: NA
Location:  39.57°N, 75.97°W
Report Text: KAPG 182055Z 31015KT 7SM OVC040 04/M05 A3007
Loading
Personal Weather Stations






























Interactive Weather Map New forecast layout! Learn more

10-Day Weather Forecast

Advertisements
Track Severe Weather on mobile